Acornridge, Missouri
Current Conditions -  °F | °C
As of 2:53 AM on Friday 21 Nov 2014 (Local Time) from KPOF Reporting Station
Overcast Overcast  
Wind Chill: 30°   Ceiling: 4800
Heat Index: 35°   Visibility: 10mi
Dew Point: 26°   Wind: 6mph
Humidity: 70%   Direction: 50°NE
Pressure: 30.33"   Gusts: NA
Location:  36.9506°N, 90.1582°W
Report Text: KPOF 210853Z AUTO 05005KT 10SM OVC048 02/M03 A3033 RMK AO2 SLP275 T00171033 53011
Loading
Personal Weather Stations






























Interactive Weather Map New forecast layout! Learn more

10-Day Weather Forecast

Advertisements
Track Severe Weather on mobile